sensor_id;sensor_type;location;lat;lon;timestamp;pressure;altitude;pressure_sealevel;temperature;humidity
43450;BME280;29041;42.266;23.110;2024-02-15T00:00:54;96207.72;;;3.14;100.00
43450;BME280;29041;42.266;23.110;2024-02-15T00:03:43;96199.50;;;3.21;100.00
43450;BME280;29041;42.266;23.110;2024-02-15T00:06:31;96206.69;;;3.41;100.00
43450;BME280;29041;42.266;23.110;2024-02-15T00:09:18;96221.56;;;3.42;100.00
43450;BME280;29041;42.266;23.110;2024-02-15T00:12:05;96228.19;;;3.29;100.00
43450;BME280;29041;42.266;23.110;2024-02-15T00:14:53;96213.34;;;3.39;100.00
43450;BME280;29041;42.266;23.110;2024-02-15T00:17:45;96209.09;;;3.27;100.00
43450;BME280;29041;42.266;23.110;2024-02-15T00:20:33;96211.47;;;3.34;100.00
43450;BME280;29041;42.266;23.110;2024-02-15T00:23:20;96219.69;;;3.38;100.00
43450;BME280;29041;42.266;23.110;2024-02-15T00:26:08;96219.16;;;3.25;100.00
43450;BME280;29041;42.266;23.110;2024-02-15T00:28:57;96219.69;;;3.43;100.00
43450;BME280;29041;42.266;23.110;2024-02-15T00:31:44;96228.69;;;3.21;100.00
43450;BME280;29041;42.266;23.110;2024-02-15T00:34:34;96226.88;;;3.37;100.00
43450;BME280;29041;42.266;23.110;2024-02-15T00:37:21;96224.97;;;3.22;100.00
43450;BME280;29041;42.266;23.110;2024-02-15T00:40:08;96221.25;;;3.03;100.00
43450;BME280;29041;42.266;23.110;2024-02-15T00:42:55;96226.31;;;3.20;100.00
43450;BME280;29041;42.266;23.110;2024-02-15T00:45:42;96222.81;;;2.98;100.00
43450;BME280;29041;42.266;23.110;2024-02-15T00:48:30;96221.25;;;3.03;100.00
43450;BME280;29041;42.266;23.110;2024-02-15T00:51:18;96224.34;;;2.84;100.00
43450;BME280;29041;42.266;23.110;2024-02-15T00:54:06;96207.16;;;2.97;100.00
43450;BME280;29041;42.266;23.110;2024-02-15T00:56:53;96218.53;;;2.82;100.00
43450;BME280;29041;42.266;23.110;2024-02-15T00:59:41;96213.97;;;2.72;100.00
43450;BME280;29041;42.266;23.110;2024-02-15T01:02:28;96213.75;;;2.79;100.00
43450;BME280;29041;42.266;23.110;2024-02-15T01:05:15;96225.72;;;2.92;100.00
43450;BME280;29041;42.266;23.110;2024-02-15T01:08:07;96223.28;;;2.80;100.00
43450;BME280;29041;42.266;23.110;2024-02-15T01:10:54;96208.97;;;2.81;100.00
43450;BME280;29041;42.266;23.110;2024-02-15T01:13:42;96216.44;;;2.89;100.00
43450;BME280;29041;42.266;23.110;2024-02-15T01:16:29;96209.75;;;2.71;100.00
43450;BME280;29041;42.266;23.110;2024-02-15T01:19:17;96196.78;;;2.80;100.00
43450;BME280;29041;42.266;23.110;2024-02-15T01:22:04;96201.47;;;2.57;100.00
43450;BME280;29041;42.266;23.110;2024-02-15T01:24:53;96216.88;;;2.70;100.00
43450;BME280;29041;42.266;23.110;2024-02-15T01:27:42;96214.72;;;2.62;100.00
43450;BME280;29041;42.266;23.110;2024-02-15T01:30:34;96217.66;;;2.66;100.00
43450;BME280;29041;42.266;23.110;2024-02-15T01:33:21;96196.47;;;2.66;100.00
43450;BME280;29041;42.266;23.110;2024-02-15T01:36:13;96216.13;;;2.75;100.00
43450;BME280;29041;42.266;23.110;2024-02-15T01:39:01;96222.44;;;2.64;100.00
43450;BME280;29041;42.266;23.110;2024-02-15T01:41:50;96204.47;;;2.76;100.00
43450;BME280;29041;42.266;23.110;2024-02-15T01:44:41;96217.16;;;2.64;100.00
43450;BME280;29041;42.266;23.110;2024-02-15T01:47:30;96181.56;;;2.49;100.00
43450;BME280;29041;42.266;23.110;2024-02-15T01:50:18;96221.41;;;2.70;100.00
43450;BME280;29041;42.266;23.110;2024-02-15T01:53:08;96208.94;;;2.70;100.00
43450;BME280;29041;42.266;23.110;2024-02-15T01:55:56;96228.06;;;2.78;100.00
43450;BME280;29041;42.266;23.110;2024-02-15T01:58:45;96224.53;;;2.57;100.00
43450;BME280;29041;42.266;23.110;2024-02-15T02:01:34;96223.44;;;2.52;100.00
43450;BME280;29041;42.266;23.110;2024-02-15T02:04:21;96224.81;;;2.60;100.00
43450;BME280;29041;42.266;23.110;2024-02-15T02:07:08;96222.38;;;2.48;100.00
43450;BME280;29041;42.266;23.110;2024-02-15T02:09:56;96219.38;;;2.34;100.00
43450;BME280;29041;42.266;23.110;2024-02-15T02:12:44;96227.41;;;2.50;100.00
43450;BME280;29041;42.266;23.110;2024-02-15T02:15:33;96220.25;;;2.45;100.00
43450;BME280;29041;42.266;23.110;2024-02-15T02:18:23;96222.59;;;2.36;100.00
43450;BME280;29041;42.266;23.110;2024-02-15T02:21:11;96226.78;;;2.27;100.00
43450;BME280;29041;42.266;23.110;2024-02-15T02:23:59;96231.81;;;2.29;100.00
43450;BME280;29041;42.266;23.110;2024-02-15T02:26:49;96238.44;;;2.31;100.00
43450;BME280;29041;42.266;23.110;2024-02-15T02:29:42;96238.53;;;2.47;100.00
43450;BME280;29041;42.266;23.110;2024-02-15T02:32:32;96244.88;;;2.46;100.00
43450;BME280;29041;42.266;23.110;2024-02-15T02:35:19;96240.31;;;2.36;100.00
43450;BME280;29041;42.266;23.110;2024-02-15T02:38:06;96233.97;;;2.32;100.00
43450;BME280;29041;42.266;23.110;2024-02-15T02:40:53;96241.38;;;2.35;100.00
43450;BME280;29041;42.266;23.110;2024-02-15T02:43:44;96229.44;;;2.32;100.00
43450;BME280;29041;42.266;23.110;2024-02-15T02:46:32;96237.50;;;2.53;100.00
43450;BME280;29041;42.266;23.110;2024-02-15T02:49:19;96233.38;;;2.25;100.00
43450;BME280;29041;42.266;23.110;2024-02-15T02:52:07;96245.88;;;2.34;100.00
43450;BME280;29041;42.266;23.110;2024-02-15T02:54:54;96243.81;;;2.42;100.00
43450;BME280;29041;42.266;23.110;2024-02-15T02:57:41;96224.34;;;2.20;100.00
43450;BME280;29041;42.266;23.110;2024-02-15T03:00:30;96241.34;;;2.30;100.00
43450;BME280;29041;42.266;23.110;2024-02-15T03:03:18;96247.09;;;2.64;100.00
43450;BME280;29041;42.266;23.110;2024-02-15T03:06:08;96240.47;;;2.72;100.00
43450;BME280;29041;42.266;23.110;2024-02-15T03:08:56;96242.84;;;2.63;100.00
43450;BME280;29041;42.266;23.110;2024-02-15T03:11:43;96245.91;;;2.40;100.00
43450;BME280;29041;42.266;23.110;2024-02-15T03:14:33;96245.63;;;2.36;100.00
43450;BME280;29041;42.266;23.110;2024-02-15T03:17:23;96242.13;;;2.25;100.00
43450;BME280;29041;42.266;23.110;2024-02-15T03:20:13;96245.47;;;2.53;100.00
43450;BME280;29041;42.266;23.110;2024-02-15T03:23:06;96260.63;;;2.63;100.00
43450;BME280;29041;42.266;23.110;2024-02-15T03:25:53;96232.78;;;2.12;100.00
43450;BME280;29041;42.266;23.110;2024-02-15T03:28:41;96256.38;;;2.62;100.00
43450;BME280;29041;42.266;23.110;2024-02-15T03:31:30;96246.25;;;2.53;100.00
43450;BME280;29041;42.266;23.110;2024-02-15T03:34:19;96232.22;;;2.53;100.00
43450;BME280;29041;42.266;23.110;2024-02-15T03:37:08;96243.41;;;2.70;100.00
43450;BME280;29041;42.266;23.110;2024-02-15T03:39:56;96239.56;;;2.41;100.00
43450;BME280;29041;42.266;23.110;2024-02-15T03:42:43;96241.72;;;2.49;100.00
43450;BME280;29041;42.266;23.110;2024-02-15T03:45:30;96209.81;;;2.28;100.00
43450;BME280;29041;42.266;23.110;2024-02-15T03:48:17;96229.50;;;2.37;100.00
43450;BME280;29041;42.266;23.110;2024-02-15T03:51:06;96229.97;;;2.29;100.00
43450;BME280;29041;42.266;23.110;2024-02-15T03:53:55;96237.38;;;2.27;100.00
43450;BME280;29041;42.266;23.110;2024-02-15T03:56:47;96226.75;;;2.22;100.00
43450;BME280;29041;42.266;23.110;2024-02-15T03:59:37;96220.91;;;2.20;100.00
43450;BME280;29041;42.266;23.110;2024-02-15T04:02:27;96241.59;;;2.23;100.00
43450;BME280;29041;42.266;23.110;2024-02-15T04:05:16;96240.00;;;2.22;100.00
43450;BME280;29041;42.266;23.110;2024-02-15T04:08:06;96242.09;;;2.20;100.00
43450;BME280;29041;42.266;23.110;2024-02-15T04:10:53;96230.16;;;2.17;100.00
43450;BME280;29041;42.266;23.110;2024-02-15T04:13:40;96243.16;;;2.19;100.00
43450;BME280;29041;42.266;23.110;2024-02-15T04:16:28;96245.25;;;2.17;100.00
43450;BME280;29041;42.266;23.110;2024-02-15T04:19:16;96248.47;;;2.24;100.00
43450;BME280;29041;42.266;23.110;2024-02-15T04:22:05;96247.41;;;2.20;100.00
43450;BME280;29041;42.266;23.110;2024-02-15T04:24:54;96242.88;;;2.20;100.00
43450;BME280;29041;42.266;23.110;2024-02-15T04:27:42;96248.72;;;2.17;100.00
43450;BME280;29041;42.266;23.110;2024-02-15T04:30:29;96241.09;;;2.31;100.00
43450;BME280;29041;42.266;23.110;2024-02-15T04:33:17;96247.88;;;2.12;100.00
43450;BME280;29041;42.266;23.110;2024-02-15T04:36:06;96227.28;;;2.24;100.00
43450;BME280;29041;42.266;23.110;2024-02-15T04:38:54;96243.16;;;2.24;100.00
43450;BME280;29041;42.266;23.110;2024-02-15T04:41:43;96244.75;;;2.20;100.00
43450;BME280;29041;42.266;23.110;2024-02-15T04:44:32;96247.66;;;2.18;100.00
43450;BME280;29041;42.266;23.110;2024-02-15T04:47:21;96250.63;;;2.32;100.00
43450;BME280;29041;42.266;23.110;2024-02-15T04:50:10;96260.63;;;2.15;100.00
43450;BME280;29041;42.266;23.110;2024-02-15T04:52:58;96265.38;;;2.18;100.00
43450;BME280;29041;42.266;23.110;2024-02-15T04:55:45;96272.28;;;2.19;100.00
43450;BME280;29041;42.266;23.110;2024-02-15T04:58:34;96270.63;;;2.08;100.00
43450;BME280;29041;42.266;23.110;2024-02-15T05:01:22;96263.78;;;2.17;100.00
43450;BME280;29041;42.266;23.110;2024-02-15T05:04:09;96274.34;;;2.06;100.00
43450;BME280;29041;42.266;23.110;2024-02-15T05:06:57;96274.81;;;2.03;100.00
43450;BME280;29041;42.266;23.110;2024-02-15T05:09:44;96273.19;;;1.97;100.00
43450;BME280;29041;42.266;23.110;2024-02-15T05:12:31;96278.00;;;2.00;100.00
43450;BME280;29041;42.266;23.110;2024-02-15T05:15:20;96279.06;;;1.99;100.00
43450;BME280;29041;42.266;23.110;2024-02-15T05:18:10;96293.59;;;1.97;100.00
43450;BME280;29041;42.266;23.110;2024-02-15T05:20:57;96293.94;;;2.11;100.00
43450;BME280;29041;42.266;23.110;2024-02-15T05:23:47;96285.84;;;1.90;100.00
43450;BME280;29041;42.266;23.110;2024-02-15T05:26:34;96295.75;;;2.05;100.00
43450;BME280;29041;42.266;23.110;2024-02-15T05:29:22;96306.00;;;1.91;100.00
43450;BME280;29041;42.266;23.110;2024-02-15T05:32:12;96286.34;;;1.87;100.00
43450;BME280;29041;42.266;23.110;2024-02-15T05:35:04;96293.06;;;1.95;100.00
43450;BME280;29041;42.266;23.110;2024-02-15T05:37:51;96301.91;;;2.11;100.00
43450;BME280;29041;42.266;23.110;2024-02-15T05:40:40;96300.72;;;1.96;100.00
43450;BME280;29041;42.266;23.110;2024-02-15T05:43:28;96303.66;;;2.00;100.00
43450;BME280;29041;42.266;23.110;2024-02-15T05:46:17;96302.38;;;2.02;100.00
43450;BME280;29041;42.266;23.110;2024-02-15T05:49:08;96313.78;;;2.03;100.00
43450;BME280;29041;42.266;23.110;2024-02-15T05:52:01;96310.31;;;2.02;100.00
43450;BME280;29041;42.266;23.110;2024-02-15T05:54:48;96322.06;;;2.17;100.00
43450;BME280;29041;42.266;23.110;2024-02-15T05:57:35;96315.97;;;2.11;100.00
43450;BME280;29041;42.266;23.110;2024-02-15T06:00:22;96322.53;;;2.09;100.00
43450;BME280;29041;42.266;23.110;2024-02-15T06:03:10;96318.84;;;2.10;100.00
43450;BME280;29041;42.266;23.110;2024-02-15T06:06:02;96328.66;;;2.09;100.00
43450;BME280;29041;42.266;23.110;2024-02-15T06:08:52;96338.69;;;2.07;100.00
43450;BME280;29041;42.266;23.110;2024-02-15T06:11:40;96349.16;;;2.24;100.00
43450;BME280;29041;42.266;23.110;2024-02-15T06:14:28;96338.13;;;2.05;100.00
43450;BME280;29041;42.266;23.110;2024-02-15T06:17:16;96344.66;;;2.25;100.00
43450;BME280;29041;42.266;23.110;2024-02-15T06:20:03;96353.09;;;2.21;100.00
43450;BME280;29041;42.266;23.110;2024-02-15T06:22:54;96355.75;;;2.21;100.00
43450;BME280;29041;42.266;23.110;2024-02-15T06:25:42;96345.69;;;2.18;100.00
43450;BME280;29041;42.266;23.110;2024-02-15T06:28:29;96353.84;;;2.17;100.00
43450;BME280;29041;42.266;23.110;2024-02-15T06:31:34;96356.59;;;2.27;100.00
43450;BME280;29041;42.266;23.110;2024-02-15T06:34:38;96351.84;;;2.29;100.00
43450;BME280;29041;42.266;23.110;2024-02-15T06:37:43;96365.16;;;2.40;100.00
43450;BME280;29041;42.266;23.110;2024-02-15T06:40:49;96359.84;;;2.34;100.00
43450;BME280;29041;42.266;23.110;2024-02-15T06:43:36;96346.56;;;2.29;100.00
43450;BME280;29041;42.266;23.110;2024-02-15T06:46:26;96366.72;;;2.35;100.00
43450;BME280;29041;42.266;23.110;2024-02-15T06:49:13;96358.75;;;2.30;100.00
43450;BME280;29041;42.266;23.110;2024-02-15T06:52:00;96365.97;;;2.40;100.00
43450;BME280;29041;42.266;23.110;2024-02-15T06:54:53;96357.06;;;2.57;100.00
43450;BME280;29041;42.266;23.110;2024-02-15T06:57:41;96370.63;;;2.60;100.00
43450;BME280;29041;42.266;23.110;2024-02-15T07:00:29;96357.19;;;2.34;100.00
43450;BME280;29041;42.266;23.110;2024-02-15T07:03:16;96362.66;;;2.60;100.00
43450;BME280;29041;42.266;23.110;2024-02-15T07:06:04;96377.47;;;2.56;100.00
43450;BME280;29041;42.266;23.110;2024-02-15T07:08:56;96357.41;;;2.70;100.00
43450;BME280;29041;42.266;23.110;2024-02-15T07:11:43;96376.81;;;2.76;100.00
43450;BME280;29041;42.266;23.110;2024-02-15T07:14:33;96363.53;;;2.71;100.00
43450;BME280;29041;42.266;23.110;2024-02-15T07:17:23;96368.84;;;2.71;100.00
43450;BME280;29041;42.266;23.110;2024-02-15T07:20:11;96373.38;;;2.81;100.00
43450;BME280;29041;42.266;23.110;2024-02-15T07:23:05;96366.38;;;3.07;100.00
43450;BME280;29041;42.266;23.110;2024-02-15T07:25:52;96377.22;;;3.06;100.00
43450;BME280;29041;42.266;23.110;2024-02-15T07:28:40;96378.44;;;2.88;100.00
43450;BME280;29041;42.266;23.110;2024-02-15T07:31:29;96368.19;;;2.96;100.00
43450;BME280;29041;42.266;23.110;2024-02-15T07:34:17;96344.31;;;2.96;100.00
43450;BME280;29041;42.266;23.110;2024-02-15T07:37:07;96365.00;;;4.66;100.00
43450;BME280;29041;42.266;23.110;2024-02-15T07:39:59;96330.59;;;9.22;76.74
43450;BME280;29041;42.266;23.110;2024-02-15T07:42:49;96317.38;;;8.98;75.80
43450;BME280;29041;42.266;23.110;2024-02-15T07:45:37;96321.13;;;7.02;79.17
43450;BME280;29041;42.266;23.110;2024-02-15T07:48:26;96320.34;;;7.45;80.15
43450;BME280;29041;42.266;23.110;2024-02-15T07:51:14;96315.97;;;9.42;72.99
43450;BME280;29041;42.266;23.110;2024-02-15T07:54:02;96317.53;;;9.57;76.14
43450;BME280;29041;42.266;23.110;2024-02-15T07:56:50;96302.84;;;10.14;71.81
43450;BME280;29041;42.266;23.110;2024-02-15T07:59:37;96301.63;;;8.68;72.76
43450;BME280;29041;42.266;23.110;2024-02-15T08:02:25;96317.44;;;8.18;78.26
43450;BME280;29041;42.266;23.110;2024-02-15T08:05:17;96300.28;;;11.70;62.11
43450;BME280;29041;42.266;23.110;2024-02-15T08:08:04;96290.03;;;10.34;61.01
43450;BME280;29041;42.266;23.110;2024-02-15T08:10:52;96302.16;;;11.52;59.40
43450;BME280;29041;42.266;23.110;2024-02-15T08:13:39;96290.50;;;13.13;52.87
43450;BME280;29041;42.266;23.110;2024-02-15T08:16:26;96284.47;;;14.09;50.79
43450;BME280;29041;42.266;23.110;2024-02-15T08:19:14;96300.19;;;13.14;52.03
43450;BME280;29041;42.266;23.110;2024-02-15T08:22:05;96288.09;;;13.50;52.24
43450;BME280;29041;42.266;23.110;2024-02-15T08:24:53;96277.19;;;11.42;55.10
43450;BME280;29041;42.266;23.110;2024-02-15T08:27:42;96288.19;;;10.43;57.17
43450;BME280;29041;42.266;23.110;2024-02-15T08:30:32;96289.16;;;10.78;58.93
43450;BME280;29041;42.266;23.110;2024-02-15T08:33:19;96275.53;;;11.15;56.72
43450;BME280;29041;42.266;23.110;2024-02-15T08:36:07;96303.16;;;9.53;65.08
43450;BME280;29041;42.266;23.110;2024-02-15T08:38:57;96280.34;;;9.78;62.26
43450;BME280;29041;42.266;23.110;2024-02-15T08:41:45;96299.91;;;12.59;55.25
43450;BME280;29041;42.266;23.110;2024-02-15T08:44:32;96274.38;;;14.19;48.15
43450;BME280;29041;42.266;23.110;2024-02-15T08:47:20;96289.34;;;12.36;54.25
43450;BME280;29041;42.266;23.110;2024-02-15T08:50:09;96290.63;;;12.30;52.39
43450;BME280;29041;42.266;23.110;2024-02-15T08:52:56;96264.25;;;12.62;52.42
43450;BME280;29041;42.266;23.110;2024-02-15T08:55:45;96266.16;;;11.97;58.30
43450;BME280;29041;42.266;23.110;2024-02-15T08:58:32;96259.09;;;13.68;51.38
43450;BME280;29041;42.266;23.110;2024-02-15T09:01:21;96268.97;;;13.85;49.89
43450;BME280;29041;42.266;23.110;2024-02-15T09:04:09;96266.72;;;13.66;49.65
43450;BME280;29041;42.266;23.110;2024-02-15T09:06:56;96273.16;;;12.45;52.63
43450;BME280;29041;42.266;23.110;2024-02-15T09:09:43;96266.16;;;10.55;58.39
43450;BME280;29041;42.266;23.110;2024-02-15T09:12:32;96259.91;;;9.68;61.49
43450;BME280;29041;42.266;23.110;2024-02-15T09:15:19;96253.13;;;8.84;66.54
43450;BME280;29041;42.266;23.110;2024-02-15T09:18:08;96268.41;;;9.48;64.19
43450;BME280;29041;42.266;23.110;2024-02-15T09:20:55;96248.50;;;10.62;61.00
43450;BME280;29041;42.266;23.110;2024-02-15T09:23:42;96238.75;;;8.94;67.34
43450;BME280;29041;42.266;23.110;2024-02-15T09:26:29;96237.22;;;8.46;68.30
43450;BME280;29041;42.266;23.110;2024-02-15T09:29:18;96233.91;;;9.69;67.13
43450;BME280;29041;42.266;23.110;2024-02-15T09:32:07;96248.69;;;9.44;65.72
43450;BME280;29041;42.266;23.110;2024-02-15T09:34:54;96236.94;;;10.22;63.48
43450;BME280;29041;42.266;23.110;2024-02-15T09:37:44;96228.75;;;10.04;62.09
43450;BME280;29041;42.266;23.110;2024-02-15T09:40:31;96233.03;;;9.82;61.83
43450;BME280;29041;42.266;23.110;2024-02-15T09:43:20;96239.13;;;9.01;66.32
43450;BME280;29041;42.266;23.110;2024-02-15T09:46:08;96187.19;;;11.40;61.67
43450;BME280;29041;42.266;23.110;2024-02-15T09:48:56;96218.97;;;11.99;58.52
43450;BME280;29041;42.266;23.110;2024-02-15T09:51:44;96220.38;;;11.09;60.55
43450;BME280;29041;42.266;23.110;2024-02-15T09:54:33;96208.22;;;11.73;59.18
43450;BME280;29041;42.266;23.110;2024-02-15T09:57:22;96204.38;;;10.14;61.08
43450;BME280;29041;42.266;23.110;2024-02-15T10:00:10;96200.44;;;11.10;64.36
43450;BME280;29041;42.266;23.110;2024-02-15T10:03:00;96191.38;;;10.88;65.64
43450;BME280;29041;42.266;23.110;2024-02-15T10:05:49;96188.13;;;11.44;60.79
43450;BME280;29041;42.266;23.110;2024-02-15T10:08:37;96181.81;;;11.40;62.17
43450;BME280;29041;42.266;23.110;2024-02-15T10:11:24;96178.00;;;10.97;61.93
43450;BME280;29041;42.266;23.110;2024-02-15T10:14:11;96174.00;;;10.86;64.41
43450;BME280;29041;42.266;23.110;2024-02-15T10:17:06;96158.66;;;10.28;67.59
43450;BME280;29041;42.266;23.110;2024-02-15T10:20:06;96130.59;;;10.92;64.72
43450;BME280;29041;42.266;23.110;2024-02-15T10:23:09;96165.81;;;11.08;62.46
43450;BME280;29041;42.266;23.110;2024-02-15T10:25:56;96160.94;;;12.28;57.84
43450;BME280;29041;42.266;23.110;2024-02-15T10:28:44;96168.81;;;11.86;58.60
43450;BME280;29041;42.266;23.110;2024-02-15T10:31:31;96161.88;;;11.76;57.45
43450;BME280;29041;42.266;23.110;2024-02-15T10:34:20;96159.28;;;11.88;62.80
43450;BME280;29041;42.266;23.110;2024-02-15T10:37:13;96131.63;;;11.79;58.80
43450;BME280;29041;42.266;23.110;2024-02-15T10:40:07;96129.88;;;11.74;62.53
43450;BME280;29041;42.266;23.110;2024-02-15T10:42:58;96123.78;;;11.30;61.23
43450;BME280;29041;42.266;23.110;2024-02-15T10:45:46;96135.47;;;10.90;62.00
43450;BME280;29041;42.266;23.110;2024-02-15T10:48:35;96102.13;;;14.37;55.39
43450;BME280;29041;42.266;23.110;2024-02-15T10:51:22;96130.19;;;11.90;59.36
43450;BME280;29041;42.266;23.110;2024-02-15T10:54:15;96114.88;;;11.65;59.34
43450;BME280;29041;42.266;23.110;2024-02-15T10:57:07;96113.91;;;12.85;56.15
43450;BME280;29041;42.266;23.110;2024-02-15T10:59:56;96110.41;;;13.27;57.80
43450;BME280;29041;42.266;23.110;2024-02-15T11:02:51;96121.84;;;12.22;59.16
43450;BME280;29041;42.266;23.110;2024-02-15T11:05:42;96097.22;;;13.13;57.02
43450;BME280;29041;42.266;23.110;2024-02-15T11:08:31;96112.06;;;12.47;59.30
43450;BME280;29041;42.266;23.110;2024-02-15T11:11:21;96087.19;;;15.05;53.09
43450;BME280;29041;42.266;23.110;2024-02-15T11:14:24;96094.66;;;13.84;54.46
43450;BME280;29041;42.266;23.110;2024-02-15T11:17:47;96094.84;;;12.69;58.94
43450;BME280;29041;42.266;23.110;2024-02-15T11:20:49;96094.44;;;11.81;58.44
43450;BME280;29041;42.266;23.110;2024-02-15T11:23:41;96111.44;;;12.12;59.51
43450;BME280;29041;42.266;23.110;2024-02-15T11:26:45;96097.81;;;12.98;58.00
43450;BME280;29041;42.266;23.110;2024-02-15T11:29:48;96083.31;;;14.53;54.89
43450;BME280;29041;42.266;23.110;2024-02-15T11:32:37;96079.88;;;12.81;58.84
43450;BME280;29041;42.266;23.110;2024-02-15T11:35:26;96079.94;;;14.56;55.75
43450;BME280;29041;42.266;23.110;2024-02-15T11:38:27;96075.25;;;12.81;56.41
43450;BME280;29041;42.266;23.110;2024-02-15T11:41:18;96080.47;;;13.75;56.70
43450;BME280;29041;42.266;23.110;2024-02-15T11:44:08;96090.78;;;12.84;58.12
43450;BME280;29041;42.266;23.110;2024-02-15T11:46:55;96073.81;;;12.63;57.81
43450;BME280;29041;42.266;23.110;2024-02-15T11:49:45;96076.28;;;13.31;57.21
43450;BME280;29041;42.266;23.110;2024-02-15T11:52:33;96082.50;;;13.11;59.76
43450;BME280;29041;42.266;23.110;2024-02-15T11:55:21;96020.41;;;14.52;55.76
43450;BME280;29041;42.266;23.110;2024-02-15T11:58:09;96071.31;;;15.60;50.54
43450;BME280;29041;42.266;23.110;2024-02-15T12:01:09;96073.63;;;14.77;51.50
43450;BME280;29041;42.266;23.110;2024-02-15T12:04:13;96055.53;;;15.05;51.08
43450;BME280;29041;42.266;23.110;2024-02-15T12:07:26;96073.81;;;15.53;50.17
43450;BME280;29041;42.266;23.110;2024-02-15T12:10:30;96072.69;;;13.27;56.26
43450;BME280;29041;42.266;23.110;2024-02-15T12:13:35;96059.28;;;15.29;51.64
43450;BME280;29041;42.266;23.110;2024-02-15T12:16:41;96064.44;;;14.40;52.46
43450;BME280;29041;42.266;23.110;2024-02-15T12:19:47;96065.81;;;15.73;49.77
43450;BME280;29041;42.266;23.110;2024-02-15T12:22:39;96065.56;;;13.90;52.42
43450;BME280;29041;42.266;23.110;2024-02-15T12:25:27;96061.63;;;15.75;50.26
43450;BME280;29041;42.266;23.110;2024-02-15T12:28:14;96072.06;;;16.05;49.01
43450;BME280;29041;42.266;23.110;2024-02-15T12:31:02;96074.75;;;13.89;53.39
43450;BME280;29041;42.266;23.110;2024-02-15T12:34:03;96074.34;;;14.11;50.77
43450;BME280;29041;42.266;23.110;2024-02-15T12:37:05;96065.78;;;15.12;50.99
43450;BME280;29041;42.266;23.110;2024-02-15T12:39:52;96065.28;;;14.94;49.74
43450;BME280;29041;42.266;23.110;2024-02-15T12:42:39;96067.91;;;14.66;50.88
43450;BME280;29041;42.266;23.110;2024-02-15T12:45:27;96067.69;;;14.58;51.44
43450;BME280;29041;42.266;23.110;2024-02-15T12:48:15;96055.16;;;15.80;47.73
43450;BME280;29041;42.266;23.110;2024-02-15T12:51:14;96042.34;;;14.63;51.29
43450;BME280;29041;42.266;23.110;2024-02-15T12:54:08;96044.44;;;16.31;47.26
43450;BME280;29041;42.266;23.110;2024-02-15T12:57:07;96048.53;;;15.04;51.09
43450;BME280;29041;42.266;23.110;2024-02-15T12:59:55;96049.44;;;16.13;48.01
43450;BME280;29041;42.266;23.110;2024-02-15T13:02:42;96063.44;;;14.33;52.96
43450;BME280;29041;42.266;23.110;2024-02-15T13:05:30;96058.91;;;15.75;48.48
43450;BME280;29041;42.266;23.110;2024-02-15T13:08:19;96064.88;;;15.36;48.35
43450;BME280;29041;42.266;23.110;2024-02-15T13:11:06;96052.84;;;16.26;48.65
43450;BME280;29041;42.266;23.110;2024-02-15T13:13:54;96057.56;;;13.81;51.59
43450;BME280;29041;42.266;23.110;2024-02-15T13:16:42;96053.84;;;14.72;51.42
43450;BME280;29041;42.266;23.110;2024-02-15T13:19:32;96041.00;;;12.61;56.21
43450;BME280;29041;42.266;23.110;2024-02-15T13:22:21;96039.38;;;13.44;54.95
43450;BME280;29041;42.266;23.110;2024-02-15T13:25:10;96059.94;;;13.15;55.68
43450;BME280;29041;42.266;23.110;2024-02-15T13:27:57;96053.09;;;13.18;53.38
43450;BME280;29041;42.266;23.110;2024-02-15T13:30:44;96045.03;;;13.30;55.20
43450;BME280;29041;42.266;23.110;2024-02-15T13:33:31;96040.38;;;13.98;51.10
43450;BME280;29041;42.266;23.110;2024-02-15T13:36:18;96016.84;;;12.01;53.92
43450;BME280;29041;42.266;23.110;2024-02-15T13:39:05;96050.84;;;12.05;56.82
43450;BME280;29041;42.266;23.110;2024-02-15T13:41:56;96047.00;;;13.42;53.46
43450;BME280;29041;42.266;23.110;2024-02-15T13:44:44;96033.50;;;14.01;51.09
43450;BME280;29041;42.266;23.110;2024-02-15T13:47:31;96034.91;;;12.73;53.78
43450;BME280;29041;42.266;23.110;2024-02-15T13:50:19;96035.88;;;13.90;51.44
43450;BME280;29041;42.266;23.110;2024-02-15T13:53:06;96055.16;;;14.79;49.61
43450;BME280;29041;42.266;23.110;2024-02-15T13:55:54;96032.13;;;13.57;52.47
43450;BME280;29041;42.266;23.110;2024-02-15T13:58:43;96058.50;;;12.76;52.09
43450;BME280;29041;42.266;23.110;2024-02-15T14:01:30;96056.53;;;13.06;51.96
43450;BME280;29041;42.266;23.110;2024-02-15T14:04:17;96051.94;;;12.34;53.63
43450;BME280;29041;42.266;23.110;2024-02-15T14:07:04;96044.69;;;12.05;54.57
43450;BME280;29041;42.266;23.110;2024-02-15T14:09:51;96047.00;;;12.88;52.50
43450;BME280;29041;42.266;23.110;2024-02-15T14:12:38;96045.06;;;14.51;49.55
43450;BME280;29041;42.266;23.110;2024-02-15T14:15:28;96046.50;;;13.28;49.36
43450;BME280;29041;42.266;23.110;2024-02-15T14:18:15;96051.66;;;13.67;50.03
43450;BME280;29041;42.266;23.110;2024-02-15T14:21:04;96055.59;;;12.09;53.48
43450;BME280;29041;42.266;23.110;2024-02-15T14:23:56;96060.50;;;12.06;54.44
43450;BME280;29041;42.266;23.110;2024-02-15T14:26:43;96079.00;;;11.52;55.15
43450;BME280;29041;42.266;23.110;2024-02-15T14:29:30;96064.81;;;11.25;56.84
43450;BME280;29041;42.266;23.110;2024-02-15T14:32:22;96071.78;;;10.91;57.90
43450;BME280;29041;42.266;23.110;2024-02-15T14:35:26;96061.75;;;11.53;56.80
43450;BME280;29041;42.266;23.110;2024-02-15T14:38:15;96061.09;;;11.65;56.38
43450;BME280;29041;42.266;23.110;2024-02-15T14:41:04;96063.72;;;11.17;57.97
43450;BME280;29041;42.266;23.110;2024-02-15T14:43:52;96076.34;;;10.73;60.52
43450;BME280;29041;42.266;23.110;2024-02-15T14:46:40;96071.06;;;10.32;62.73